Mesquite, New Mexico
Current Conditions -  °F | °C
As of 5:55 AM on Wednesday 26 Nov 2014 (Local Time) from KLRU Reporting Station
Clear Clear  
Wind Chill: 24°   Ceiling: Unl
Heat Index: 30°   Visibility: 10mi
Dew Point:   Wind: 6mph
Humidity: 32%   Direction: 300°WNW
Pressure: 30.34"   Gusts: NA
Location:  32.17°N, 106.7°W
Report Text: KLRU 261255Z AUTO 30005KT 10SM CLR M01/M16 A3034 RMK AO2 T10131161 PWINO
Loading
Personal Weather Stations






























Interactive Weather Map New forecast layout! Learn more

10-Day Weather Forecast

Advertisements
Track Severe Weather on mobile